Time;durP1;ratioP1;P1;durP2;ratioP2;P2;SDS_P1;SDS_P2;PMS_P1;PMS_P2;Temp;Humidity;BMP_temperature;BMP_pressure;BME280_temperature;BME280_humidity;BME280_pressure;Samples;Min_cycle;Max_cycle;Signal;HPM_P1;HPM_P2
2023/12/20 00:02:09;;;;;;;4.70;2.87;;;5.60;99.90;;;;;;4991914;28;20118;-84
2023/12/20 00:04:35;;;;;;;6.63;3.10;;;5.60;99.90;;;;;;5009919;28;20034;-83
2023/12/20 00:07:01;;;;;;;4.70;2.90;;;5.50;99.90;;;;;;5010212;28;20163;-84
2023/12/20 00:09:27;;;;;;;5.47;3.13;;;5.50;99.90;;;;;;5008412;28;20038;-84
2023/12/20 00:11:52;;;;;;;3.73;2.67;;;5.40;99.90;;;;;;5007550;28;20030;-83
2023/12/20 00:14:18;;;;;;;4.60;2.97;;;5.40;99.90;;;;;;5009250;28;20101;-83
2023/12/20 00:16:43;;;;;;;4.53;3.00;;;5.40;99.90;;;;;;5008755;28;20037;-83
2023/12/20 00:19:09;;;;;;;4.37;2.90;;;5.30;99.90;;;;;;5010531;28;20056;-82
2023/12/20 00:21:34;;;;;;;4.93;2.70;;;5.30;99.90;;;;;;5008718;28;20072;-84
2023/12/20 00:24:00;;;;;;;4.23;2.60;;;5.30;99.90;;;;;;5008287;28;20485;-83
2023/12/20 00:26:26;;;;;;;5.57;2.90;;;5.20;99.90;;;;;;5008694;28;20030;-83
2023/12/20 00:28:51;;;;;;;6.27;3.30;;;5.30;99.90;;;;;;5007914;28;20034;-83
2023/12/20 00:31:17;;;;;;;3.53;2.33;;;5.30;99.90;;;;;;5007364;28;20041;-83
2023/12/20 00:33:43;;;;;;;4.63;3.00;;;5.30;99.90;;;;;;5008038;28;20045;-84
2023/12/20 00:36:09;;;;;;;5.83;3.33;;;5.20;99.90;;;;;;5007182;28;20037;-84
2023/12/20 00:38:35;;;;;;;4.47;2.67;;;5.30;99.90;;;;;;5008447;28;20037;-83
2023/12/20 00:41:00;;;;;;;5.57;3.13;;;5.30;99.90;;;;;;5007993;28;20037;-83
2023/12/20 00:43:26;;;;;;;5.80;3.03;;;5.30;99.90;;;;;;5008900;28;20030;-84
2023/12/20 00:45:52;;;;;;;3.87;2.70;;;5.30;99.90;;;;;;5004460;28;20029;-84
2023/12/20 00:48:17;;;;;;;5.00;2.50;;;5.30;99.90;;;;;;5006476;28;20262;-84
2023/12/20 00:50:43;;;;;;;4.70;2.40;;;5.40;99.90;;;;;;5008964;28;20045;-84
2023/12/20 00:53:08;;;;;;;3.47;2.30;;;5.40;99.90;;;;;;5010068;28;20041;-84
2023/12/20 00:55:34;;;;;;;4.53;2.40;;;5.50;99.90;;;;;;4987298;28;20416;-84
2023/12/20 00:58:00;;;;;;;3.30;2.10;;;5.50;99.90;;;;;;5006396;28;20182;-83
2023/12/20 01:00:25;;;;;;;3.50;2.20;;;5.50;99.90;;;;;;5012210;28;20570;-84
2023/12/20 01:02:51;;;;;;;4.50;2.30;;;5.50;99.90;;;;;;5010838;28;20018;-84
2023/12/20 01:05:17;;;;;;;3.50;2.50;;;5.60;99.90;;;;;;5010787;28;20124;-83
2023/12/20 01:07:43;;;;;;;3.50;2.10;;;5.60;99.90;;;;;;5011547;28;20034;-83
2023/12/20 01:10:08;;;;;;;3.37;2.10;;;5.60;99.90;;;;;;5007370;28;20547;-84
2023/12/20 01:12:36;;;;;;;3.27;1.77;;;5.60;99.90;;;;;;5006478;28;20359;-84
2023/12/20 01:15:02;;;;;;;4.10;2.00;;;5.70;99.90;;;;;;5007399;28;20036;-84
2023/12/20 01:17:27;;;;;;;3.00;2.00;;;5.70;99.90;;;;;;5007499;28;20719;-84
2023/12/20 01:19:53;;;;;;;2.93;2.03;;;5.70;99.90;;;;;;5006081;28;20022;-84
2023/12/20 01:22:19;;;;;;;2.70;1.80;;;5.80;99.90;;;;;;5007647;28;20037;-84
2023/12/20 01:24:44;;;;;;;3.13;1.77;;;5.70;99.90;;;;;;5008591;28;20034;-83
2023/12/20 01:27:10;;;;;;;3.47;2.17;;;5.70;99.90;;;;;;5007460;28;20026;-84
2023/12/20 01:29:35;;;;;;;3.60;2.07;;;5.70;99.90;;;;;;5007182;28;20040;-83
2023/12/20 01:32:01;;;;;;;2.57;1.60;;;5.70;99.90;;;;;;5007306;28;20109;-84
2023/12/20 01:34:26;;;;;;;2.87;1.87;;;5.80;99.90;;;;;;5012237;28;20769;-84
2023/12/20 01:36:52;;;;;;;3.50;1.70;;;5.80;99.90;;;;;;5011376;28;20498;-83
2023/12/20 01:39:18;;;;;;;3.50;1.97;;;5.80;99.90;;;;;;5010411;28;20033;-84
2023/12/20 01:41:43;;;;;;;2.97;1.57;;;5.80;99.90;;;;;;5015489;28;20105;-83
2023/12/20 01:44:09;;;;;;;4.07;2.03;;;5.80;99.90;;;;;;5012943;28;20153;-83
2023/12/20 01:46:34;;;;;;;3.27;2.43;;;5.80;99.90;;;;;;5016697;28;20033;-83
2023/12/20 01:49:00;;;;;;;2.37;1.67;;;5.90;99.90;;;;;;5017352;28;20118;-84
2023/12/20 01:51:27;;;;;;;3.37;1.90;;;5.90;99.90;;;;;;5008583;28;20026;-84
2023/12/20 01:53:56;;;;;;;2.10;1.70;;;5.80;99.90;;;;;;5008082;28;20030;-84
2023/12/20 01:56:22;;;;;;;2.93;1.70;;;5.80;99.90;;;;;;5006977;28;20034;-84
2023/12/20 01:58:48;;;;;;;2.80;1.80;;;5.80;99.90;;;;;;5005975;28;20054;-84
2023/12/20 02:01:13;;;;;;;3.03;1.50;;;5.80;99.90;;;;;;5006331;28;20030;-84
2023/12/20 02:03:42;;;;;;;3.20;1.73;;;5.90;99.90;;;;;;5005615;28;20030;-84
2023/12/20 02:06:09;;;;;;;2.00;1.57;;;5.80;99.90;;;;;;5003213;28;20201;-83
2023/12/20 02:08:35;;;;;;;2.43;1.60;;;5.90;99.90;;;;;;5003702;28;20022;-84
2023/12/20 02:11:01;;;;;;;3.20;1.80;;;5.80;99.90;;;;;;5011366;28;20691;-83
2023/12/20 02:13:27;;;;;;;2.13;1.50;;;5.90;99.90;;;;;;5010825;28;20038;-84
2023/12/20 02:15:53;;;;;;;1.87;1.30;;;5.80;99.90;;;;;;5009073;28;21699;-84
2023/12/20 02:18:19;;;;;;;3.23;1.60;;;5.80;99.90;;;;;;5009588;28;20045;-84
2023/12/20 02:20:45;;;;;;;2.50;1.40;;;5.80;99.90;;;;;;4991753;28;20958;-84
2023/12/20 02:23:10;;;;;;;2.07;1.40;;;5.80;99.90;;;;;;5009573;28;20517;-84
2023/12/20 02:25:37;;;;;;;2.00;1.40;;;5.90;99.90;;;;;;5010774;28;20036;-84
2023/12/20 02:28:03;;;;;;;2.47;1.90;;;5.90;99.90;;;;;;4993104;28;20245;-84
2023/12/20 02:30:29;;;;;;;3.20;1.53;;;5.90;99.90;;;;;;5009242;28;20037;-84
2023/12/20 02:32:55;;;;;;;2.87;1.30;;;5.90;99.90;;;;;;5011179;28;20464;-84
2023/12/20 02:35:20;;;;;;;1.90;1.37;;;5.90;99.90;;;;;;5008814;28;20623;-84
2023/12/20 02:37:46;;;;;;;2.40;1.60;;;5.90;99.90;;;;;;5009610;28;20060;-85
2023/12/20 02:40:12;;;;;;;2.40;1.73;;;5.90;99.90;;;;;;5011995;28;20094;-84
2023/12/20 02:42:37;;;;;;;2.93;1.40;;;5.90;99.90;;;;;;5011025;28;20065;-84
2023/12/20 02:45:03;;;;;;;1.50;1.30;;;5.90;99.90;;;;;;5009345;28;20060;-84
2023/12/20 02:47:29;;;;;;;2.07;1.30;;;5.90;99.90;;;;;;5008398;28;20467;-83
2023/12/20 02:49:55;;;;;;;1.83;1.23;;;5.90;99.90;;;;;;5009998;28;20042;-84
2023/12/20 02:52:23;;;;;;;1.73;1.10;;;5.90;99.90;;;;;;5010092;28;20038;-84
2023/12/20 02:54:48;;;;;;;1.60;1.27;;;6.00;99.90;;;;;;5008573;28;20034;-84
2023/12/20 02:57:14;;;;;;;1.73;1.10;;;6.00;99.90;;;;;;5007727;28;20030;-84
2023/12/20 02:59:39;;;;;;;2.20;1.13;;;6.00;99.90;;;;;;4992141;28;20045;-84
2023/12/20 03:02:05;;;;;;;1.27;1.00;;;6.00;99.90;;;;;;5009605;28;20037;-84
2023/12/20 03:04:30;;;;;;;1.67;0.93;;;6.00;99.90;;;;;;5009692;28;20029;-84
2023/12/20 03:06:56;;;;;;;1.80;1.03;;;6.00;99.90;;;;;;5008396;28;20428;-84
2023/12/20 03:09:21;;;;;;;1.20;0.90;;;6.10;99.90;;;;;;5012369;28;20022;-85
2023/12/20 03:11:47;;;;;;;1.23;0.90;;;6.10;99.90;;;;;;5011237;28;20041;-84
2023/12/20 03:14:12;;;;;;;1.10;1.00;;;6.10;99.90;;;;;;4995026;28;20025;-84
2023/12/20 03:16:38;;;;;;;1.07;0.90;;;6.20;99.90;;;;;;5007597;28;20037;-84
2023/12/20 03:19:03;;;;;;;1.87;1.00;;;6.20;99.90;;;;;;5013651;28;20238;-84
2023/12/20 03:21:29;;;;;;;1.27;0.90;;;6.20;99.90;;;;;;5009344;28;20043;-84
2023/12/20 03:23:54;;;;;;;1.30;1.10;;;6.30;99.90;;;;;;5007474;28;20068;-84
2023/12/20 03:26:22;;;;;;;1.23;1.10;;;6.20;99.90;;;;;;5009249;28;20079;-83
2023/12/20 03:28:48;;;;;;;1.30;1.00;;;6.30;99.90;;;;;;4991796;28;20037;-84
2023/12/20 03:31:14;;;;;;;1.43;1.03;;;6.30;99.90;;;;;;5011183;28;20030;-84
2023/12/20 03:33:39;;;;;;;1.50;1.20;;;6.30;99.90;;;;;;5008915;28;20041;-84
2023/12/20 03:36:05;;;;;;;2.97;1.20;;;6.30;99.90;;;;;;5013877;28;20037;-83
2023/12/20 03:38:30;;;;;;;1.57;1.13;;;6.40;99.90;;;;;;5010131;28;20037;-85
2023/12/20 03:40:56;;;;;;;1.77;1.17;;;6.40;99.90;;;;;;5008677;28;20121;-84
2023/12/20 03:43:21;;;;;;;1.30;1.10;;;6.40;99.90;;;;;;5009333;28;20061;-84
2023/12/20 03:45:47;;;;;;;1.70;1.27;;;6.50;99.90;;;;;;5007513;28;20030;-84
2023/12/20 03:48:12;;;;;;;1.10;1.00;;;6.50;99.90;;;;;;5007420;28;20092;-84
2023/12/20 03:50:38;;;;;;;1.50;1.27;;;6.40;99.90;;;;;;4989020;28;20031;-84
2023/12/20 03:53:04;;;;;;;1.77;1.30;;;6.40;99.90;;;;;;5006577;28;20037;-84
2023/12/20 03:55:29;;;;;;;1.33;1.03;;;6.40;99.90;;;;;;5006098;28;20464;-84
2023/12/20 03:57:55;;;;;;;1.57;1.30;;;6.30;99.90;;;;;;5005250;28;20061;-84
2023/12/20 04:00:20;;;;;;;1.77;1.20;;;6.30;99.90;;;;;;5007162;28;20033;-84
2023/12/20 04:02:46;;;;;;;2.27;1.30;;;6.30;99.90;;;;;;4988859;28;20096;-84
2023/12/20 04:05:11;;;;;;;2.43;1.70;;;6.30;99.90;;;;;;5004909;28;20088;-84
2023/12/20 04:07:37;;;;;;;1.37;1.13;;;6.30;99.90;;;;;;5005155;28;20085;-85
2023/12/20 04:10:03;;;;;;;2.20;1.60;;;6.20;99.90;;;;;;5006045;28;20030;-84
2023/12/20 04:12:29;;;;;;;1.20;1.10;;;6.10;99.90;;;;;;5006374;28;20069;-84
2023/12/20 04:14:55;;;;;;;2.63;1.67;;;6.00;99.90;;;;;;5005477;28;20079;-84
2023/12/20 04:17:22;;;;;;;1.80;1.40;;;5.90;99.90;;;;;;5006595;28;20516;-84
2023/12/20 04:19:51;;;;;;;1.73;1.37;;;5.90;99.90;;;;;;5006186;28;20089;-85
2023/12/20 04:22:17;;;;;;;1.90;1.50;;;5.80;99.90;;;;;;5005153;28;20060;-83
2023/12/20 04:24:43;;;;;;;3.63;1.80;;;5.80;99.90;;;;;;5004810;28;20034;-84
2023/12/20 04:27:09;;;;;;;3.07;1.60;;;5.70;99.90;;;;;;5007406;28;20104;-84
2023/12/20 04:29:34;;;;;;;2.43;1.80;;;5.90;99.90;;;;;;5008268;28;20056;-84
2023/12/20 04:32:00;;;;;;;2.63;1.67;;;5.80;99.90;;;;;;4990030;28;20141;-84
2023/12/20 04:34:26;;;;;;;1.90;1.60;;;5.70;99.90;;;;;;5007002;28;20040;-84
2023/12/20 04:36:51;;;;;;;2.07;1.53;;;5.70;99.90;;;;;;5004784;28;20034;-84
2023/12/20 04:39:17;;;;;;;2.77;1.70;;;5.80;99.90;;;;;;5006234;28;20034;-84
2023/12/20 04:41:42;;;;;;;2.70;1.90;;;5.80;99.90;;;;;;5006201;28;20041;-84
2023/12/20 04:44:08;;;;;;;2.10;1.80;;;5.80;99.90;;;;;;5007706;28;20048;-84
2023/12/20 04:46:33;;;;;;;2.77;1.70;;;5.70;99.90;;;;;;5006404;28;20037;-84
2023/12/20 04:48:59;;;;;;;2.70;1.90;;;5.70;99.90;;;;;;5006224;28;20039;-84
2023/12/20 04:51:24;;;;;;;3.30;2.17;;;5.70;99.90;;;;;;5004202;28;20030;-83
2023/12/20 04:53:50;;;;;;;3.63;2.20;;;5.60;99.90;;;;;;5002087;28;21466;-83
2023/12/20 04:56:15;;;;;;;4.90;2.93;;;5.60;99.90;;;;;;5002427;28;20041;-84
2023/12/20 04:58:42;;;;;;;3.90;2.60;;;5.50;99.90;;;;;;5003749;28;20034;-83
2023/12/20 05:01:09;;;;;;;6.20;2.97;;;5.50;99.90;;;;;;5001367;28;20037;-83
2023/12/20 05:03:34;;;;;;;3.73;3.03;;;5.40;99.90;;;;;;5002405;28;20046;-84
2023/12/20 05:06:00;;;;;;;4.23;3.00;;;5.40;99.90;;;;;;5001189;28;20041;-83
2023/12/20 05:08:25;;;;;;;4.33;3.20;;;5.30;99.90;;;;;;5002042;28;20075;-84
2023/12/20 05:10:54;;;;;;;5.20;3.43;;;5.30;99.90;;;;;;5003134;28;20037;-85
2023/12/20 05:13:20;;;;;;;6.13;3.80;;;5.30;99.90;;;;;;5002830;28;20065;-84
2023/12/20 05:15:45;;;;;;;5.40;3.53;;;5.20;99.90;;;;;;5003325;28;20030;-84
2023/12/20 05:18:11;;;;;;;5.40;3.90;;;5.10;99.90;;;;;;5002166;28;20105;-86
2023/12/20 05:20:37;;;;;;;8.77;3.97;;;5.10;99.90;;;;;;5005938;28;20614;-86
2023/12/20 05:23:02;;;;;;;5.20;3.77;;;5.10;99.90;;;;;;5003888;28;20061;-85
2023/12/20 05:25:28;;;;;;;4.80;3.77;;;5.10;99.90;;;;;;5003381;28;20030;-86
2023/12/20 05:27:53;;;;;;;4.87;3.80;;;5.10;99.90;;;;;;5002971;28;20124;-85
2023/12/20 05:30:19;;;;;;;5.13;3.67;;;5.00;99.90;;;;;;5004164;28;20071;-85
2023/12/20 05:32:44;;;;;;;5.40;4.00;;;5.10;99.90;;;;;;4983512;28;20401;-85
2023/12/20 05:35:10;;;;;;;5.90;3.40;;;5.00;99.90;;;;;;5003055;28;20037;-85
2023/12/20 05:37:35;;;;;;;6.13;3.70;;;5.00;99.90;;;;;;5002801;28;20038;-84
2023/12/20 05:40:01;;;;;;;5.00;3.47;;;4.90;99.90;;;;;;5001917;28;20120;-85
2023/12/20 05:42:26;;;;;;;4.90;3.60;;;5.00;99.90;;;;;;5003523;28;20029;-84
2023/12/20 05:44:52;;;;;;;5.00;3.43;;;5.00;99.90;;;;;;5002221;28;20030;-86
2023/12/20 05:47:18;;;;;;;4.37;3.50;;;5.00;99.90;;;;;;4995590;28;20030;-85
2023/12/20 05:49:45;;;;;;;4.60;3.30;;;4.90;99.90;;;;;;4999035;28;20041;-85
2023/12/20 05:52:10;;;;;;;6.10;3.60;;;4.90;99.90;;;;;;4999342;28;20040;-85
2023/12/20 05:54:36;;;;;;;4.83;3.40;;;4.90;99.90;;;;;;4984444;28;20033;-85
2023/12/20 05:57:01;;;;;;;4.53;3.60;;;4.90;99.90;;;;;;5004126;28;20029;-87
2023/12/20 05:59:27;;;;;;;4.27;3.30;;;4.90;99.90;;;;;;5019801;28;20076;-86
2023/12/20 06:01:52;;;;;;;3.40;2.80;;;4.80;99.90;;;;;;5007864;28;20041;-87
2023/12/20 06:04:18;;;;;;;4.00;3.37;;;4.80;99.90;;;;;;4986024;28;20081;-84
2023/12/20 06:06:44;;;;;;;4.23;3.40;;;4.70;99.90;;;;;;5002716;28;20679;-85
2023/12/20 06:09:10;;;;;;;5.67;3.90;;;4.70;99.90;;;;;;5004025;28;20067;-85
2023/12/20 06:11:35;;;;;;;6.00;3.67;;;4.60;99.90;;;;;;5004596;28;20493;-84
2023/12/20 06:14:01;;;;;;;4.97;3.17;;;4.60;99.90;;;;;;5005156;28;20031;-86
2023/12/20 06:16:26;;;;;;;5.33;3.63;;;4.60;99.90;;;;;;5002199;28;20027;-86
2023/12/20 06:18:55;;;;;;;5.10;3.83;;;4.60;99.90;;;;;;5003449;28;20030;-85
2023/12/20 06:21:20;;;;;;;4.37;3.40;;;4.50;99.90;;;;;;5007892;28;20038;-87
2023/12/20 06:23:46;;;;;;;7.27;3.50;;;4.50;99.90;;;;;;5007350;28;20041;-85
2023/12/20 06:26:11;;;;;;;4.20;3.33;;;4.50;99.90;;;;;;5006532;28;20026;-84
2023/12/20 06:28:37;;;;;;;4.37;3.20;;;4.50;99.90;;;;;;5005116;28;20027;-86
2023/12/20 06:31:03;;;;;;;4.60;3.13;;;4.50;99.90;;;;;;5006591;28;20838;-86
2023/12/20 06:33:30;;;;;;;5.07;3.40;;;4.50;99.90;;;;;;4990199;28;20041;-86
2023/12/20 06:35:56;;;;;;;3.80;2.90;;;4.50;99.90;;;;;;5007328;28;20026;-85
2023/12/20 06:38:22;;;;;;;5.03;3.77;;;4.50;99.90;;;;;;5008348;28;20032;-85
2023/12/20 06:40:47;;;;;;;4.00;3.30;;;4.40;99.90;;;;;;5008115;28;20033;-87
2023/12/20 06:43:13;;;;;;;4.77;3.60;;;4.40;99.90;;;;;;5007364;28;20094;-87
2023/12/20 06:45:39;;;;;;;4.63;3.47;;;4.40;99.90;;;;;;5006167;28;20037;-87
2023/12/20 06:48:05;;;;;;;5.30;3.30;;;4.40;99.90;;;;;;5007627;28;20035;-89
2023/12/20 06:50:30;;;;;;;5.00;3.00;;;4.40;99.90;;;;;;5006438;28;20027;-86
2023/12/20 06:52:56;;;;;;;4.83;3.10;;;4.40;99.90;;;;;;5007207;28;20468;-87
2023/12/20 06:55:22;;;;;;;4.23;3.23;;;4.30;99.90;;;;;;5007984;28;20029;-87
2023/12/20 06:57:48;;;;;;;3.90;2.90;;;4.30;99.90;;;;;;5006692;28;21166;-86
2023/12/20 07:00:14;;;;;;;3.47;2.60;;;4.30;99.90;;;;;;5005400;28;20031;-86
2023/12/20 07:02:40;;;;;;;3.40;2.50;;;4.30;99.90;;;;;;5008461;28;20037;-86
2023/12/20 07:05:06;;;;;;;5.27;2.80;;;4.30;99.90;;;;;;5005465;28;20049;-87
2023/12/20 07:07:31;;;;;;;4.03;2.70;;;4.20;99.90;;;;;;5003766;28;20075;-86
2023/12/20 07:09:57;;;;;;;3.90;2.70;;;4.20;99.90;;;;;;5004675;28;20056;-88
2023/12/20 07:12:22;;;;;;;4.37;2.53;;;4.20;99.90;;;;;;5005845;28;20061;-86
2023/12/20 07:14:48;;;;;;;3.90;2.50;;;4.30;99.90;;;;;;5004129;28;20030;-86
2023/12/20 07:17:15;;;;;;;3.53;2.40;;;4.20;99.90;;;;;;5003344;28;20030;-88
2023/12/20 07:19:41;;;;;;;4.67;2.63;;;4.20;99.90;;;;;;5005253;28;20041;-86
2023/12/20 07:22:07;;;;;;;2.67;2.20;;;4.30;99.90;;;;;;5002233;28;20038;-87
2023/12/20 07:24:32;;;;;;;4.43;2.10;;;4.20;99.90;;;;;;5002925;28;20027;-88
2023/12/20 07:27:00;;;;;;;3.60;2.20;;;4.20;99.90;;;;;;5001661;28;20591;-86
2023/12/20 07:29:25;;;;;;;2.87;2.10;;;4.20;99.90;;;;;;5001352;28;20034;-87
2023/12/20 07:31:57;;;;;;;2.80;1.90;;;4.20;99.90;;;;;;5000978;28;20037;-88
2023/12/20 07:34:23;;;;;;;2.37;1.80;;;4.20;99.90;;;;;;5001856;28;20030;-86
2023/12/20 07:36:48;;;;;;;2.73;1.97;;;4.20;99.90;;;;;;5001312;28;20027;-86
2023/12/20 07:39:14;;;;;;;3.63;1.83;;;4.20;99.90;;;;;;5001439;28;20064;-87
2023/12/20 07:41:40;;;;;;;2.10;1.70;;;4.20;99.90;;;;;;5003616;28;20038;-88
2023/12/20 07:44:06;;;;;;;1.70;1.50;;;4.20;99.90;;;;;;5002004;28;20094;-87
2023/12/20 07:46:32;;;;;;;2.57;1.77;;;4.20;99.90;;;;;;5000952;28;20026;-86
2023/12/20 07:48:57;;;;;;;2.47;1.60;;;4.20;99.90;;;;;;5000391;28;20034;-85
2023/12/20 07:51:23;;;;;;;1.90;1.47;;;4.20;99.90;;;;;;5001850;28;20507;-85
2023/12/20 07:53:50;;;;;;;2.10;1.63;;;4.20;99.90;;;;;;5002864;28;20038;-85
2023/12/20 07:56:16;;;;;;;2.33;1.53;;;4.10;99.90;;;;;;5002695;28;20109;-85
2023/12/20 07:58:42;;;;;;;2.30;1.70;;;4.20;99.90;;;;;;5001697;28;20034;-85
2023/12/20 08:01:08;;;;;;;2.13;1.40;;;4.20;99.90;;;;;;5001891;28;20044;-85
2023/12/20 08:03:33;;;;;;;2.83;1.50;;;4.10;99.90;;;;;;4998482;28;20044;-82
2023/12/20 08:05:59;;;;;;;2.23;1.40;;;4.10;99.90;;;;;;5000490;28;20414;-82
2023/12/20 08:08:25;;;;;;;1.70;1.27;;;4.20;99.90;;;;;;4998216;28;21413;-81
2023/12/20 08:10:50;;;;;;;1.60;1.30;;;4.20;99.90;;;;;;4998550;28;20037;-82
2023/12/20 08:13:16;;;;;;;1.27;1.10;;;4.20;99.90;;;;;;4997894;28;20049;-82
2023/12/20 08:15:42;;;;;;;4.10;1.90;;;4.20;99.90;;;;;;4999372;28;20046;-82
2023/12/20 08:18:07;;;;;;;1.50;1.30;;;4.10;99.90;;;;;;5000698;28;20044;-82
2023/12/20 08:20:33;;;;;;;1.90;1.40;;;4.10;99.90;;;;;;5000496;28;20030;-83
2023/12/20 08:22:58;;;;;;;3.03;1.30;;;4.10;99.90;;;;;;5003442;28;20102;-86
2023/12/20 08:25:24;;;;;;;1.77;1.63;;;4.10;99.90;;;;;;5004319;28;20030;-85
2023/12/20 08:27:49;;;;;;;1.83;1.40;;;4.10;99.90;;;;;;5004395;28;20030;-85
2023/12/20 08:30:17;;;;;;;2.97;1.60;;;4.10;99.90;;;;;;5004632;28;20026;-84
2023/12/20 08:32:43;;;;;;;3.50;1.90;;;4.20;99.90;;;;;;5005632;28;20148;-84
2023/12/20 08:35:08;;;;;;;3.53;1.87;;;4.20;99.90;;;;;;5004479;28;20125;-84
2023/12/20 08:37:35;;;;;;;4.30;2.10;;;4.20;99.90;;;;;;5003584;28;20731;-84
2023/12/20 08:40:01;;;;;;;4.77;2.50;;;4.20;99.90;;;;;;5003939;28;20501;-84
2023/12/20 08:42:30;;;;;;;3.70;2.30;;;4.20;99.90;;;;;;5003448;28;20061;-85
2023/12/20 08:44:57;;;;;;;4.87;2.10;;;4.20;99.90;;;;;;5005657;28;20041;-84
2023/12/20 08:47:22;;;;;;;4.17;2.10;;;4.20;99.90;;;;;;4991624;28;21043;-84
2023/12/20 08:49:48;;;;;;;3.27;2.00;;;4.20;99.90;;;;;;4985531;28;20033;-84
2023/12/20 08:52:14;;;;;;;3.87;1.77;;;4.20;99.90;;;;;;5004524;28;20026;-84
2023/12/20 08:54:39;;;;;;;2.77;1.97;;;4.20;99.90;;;;;;4985975;28;20030;-84
2023/12/20 08:57:06;;;;;;;2.73;1.90;;;4.20;99.90;;;;;;4987431;28;20037;-85
2023/12/20 08:59:32;;;;;;;2.67;1.90;;;4.30;99.90;;;;;;5003741;28;20285;-84
2023/12/20 09:01:58;;;;;;;2.17;1.60;;;4.30;99.90;;;;;;5004845;28;20044;-84
2023/12/20 09:04:23;;;;;;;2.87;1.90;;;4.30;99.90;;;;;;5003550;28;20042;-85
2023/12/20 09:06:49;;;;;;;2.13;1.60;;;4.30;99.90;;;;;;5003210;28;20040;-85
2023/12/20 09:09:15;;;;;;;1.83;1.37;;;4.30;99.90;;;;;;5004264;28;20132;-85
2023/12/20 09:11:41;;;;;;;2.73;1.43;;;4.30;99.90;;;;;;5002698;28;20045;-84
2023/12/20 09:14:07;;;;;;;1.90;1.60;;;4.30;99.90;;;;;;5002743;28;20036;-84
2023/12/20 09:16:33;;;;;;;3.73;1.90;;;4.30;99.90;;;;;;5007419;28;20026;-83
2023/12/20 09:18:59;;;;;;;2.47;1.60;;;4.30;99.90;;;;;;5010988;28;20386;-84
2023/12/20 09:21:24;;;;;;;2.43;2.00;;;4.30;99.90;;;;;;5021133;28;20384;-83
2023/12/20 09:23:50;;;;;;;2.53;1.63;;;4.30;99.90;;;;;;5000258;28;20030;-83
2023/12/20 09:26:15;;;;;;;1.53;1.30;;;4.30;99.90;;;;;;5012065;28;20034;-84
2023/12/20 09:28:41;;;;;;;5.33;2.70;;;4.30;99.90;;;;;;5014235;28;20026;-83
2023/12/20 09:31:07;;;;;;;3.87;1.60;;;4.30;99.90;;;;;;5016461;28;20118;-83
2023/12/20 09:33:33;;;;;;;2.53;1.73;;;4.30;99.90;;;;;;4994541;28;20038;-85
2023/12/20 09:35:59;;;;;;;2.53;1.87;;;4.30;99.90;;;;;;4982277;28;20023;-85
2023/12/20 09:38:24;;;;;;;3.23;1.70;;;4.30;99.90;;;;;;5002583;28;20118;-85
2023/12/20 09:40:50;;;;;;;2.60;1.67;;;4.30;99.90;;;;;;4984497;28;20088;-85
2023/12/20 09:43:19;;;;;;;2.10;1.63;;;4.30;99.90;;;;;;5002813;28;20125;-84
2023/12/20 09:45:46;;;;;;;2.70;1.43;;;4.30;99.90;;;;;;5004312;28;20033;-84
2023/12/20 09:48:14;;;;;;;2.10;1.60;;;4.40;99.90;;;;;;5001227;28;21055;-85
2023/12/20 09:50:40;;;;;;;2.13;1.77;;;4.30;99.90;;;;;;5002890;28;20037;-85
2023/12/20 09:53:09;;;;;;;2.07;1.70;;;4.40;99.90;;;;;;4984277;28;20034;-84
2023/12/20 09:55:36;;;;;;;2.03;1.83;;;4.40;99.90;;;;;;5005127;28;20034;-85
2023/12/20 09:58:02;;;;;;;1.90;1.60;;;4.50;99.90;;;;;;4987408;28;20090;-84
2023/12/20 10:00:28;;;;;;;1.70;1.30;;;4.50;99.90;;;;;;4988374;28;20059;-84
2023/12/20 10:02:57;;;;;;;2.67;1.93;;;4.50;99.90;;;;;;5004721;28;20408;-84
2023/12/20 10:05:30;;;;;;;2.30;1.87;;;4.50;99.90;;;;;;5005451;28;20026;-85
2023/12/20 10:07:56;;;;;;;3.13;1.70;;;4.60;99.90;;;;;;5005828;28;20029;-85
2023/12/20 10:10:22;;;;;;;3.13;2.10;;;4.60;99.90;;;;;;5006800;28;21159;-84
2023/12/20 10:13:17;;;;;;;2.67;2.00;;;4.60;99.90;;;;;;5005720;28;20092;-85
2023/12/20 10:15:43;;;;;;;2.60;1.70;;;4.80;99.90;;;;;;4987215;28;20054;-84
2023/12/20 10:18:08;;;;;;;2.00;1.77;;;4.90;99.90;;;;;;5006221;28;20065;-84
2023/12/20 10:20:34;;;;;;;4.33;1.87;;;5.00;99.90;;;;;;5003279;28;20036;-84
2023/12/20 10:23:01;;;;;;;2.10;1.70;;;5.00;99.90;;;;;;5005450;28;20047;-84
2023/12/20 10:25:27;;;;;;;2.50;1.50;;;5.00;99.90;;;;;;5006753;28;20036;-85
2023/12/20 10:28:13;;;;;;;3.57;1.80;;;5.00;99.90;;;;;;5004911;28;20078;-84
2023/12/20 10:30:39;;;;;;;2.40;1.80;;;5.10;99.90;;;;;;5006164;28;20029;-85
2023/12/20 10:33:09;;;;;;;2.77;1.90;;;5.10;99.90;;;;;;5003635;28;20142;-84
2023/12/20 10:35:36;;;;;;;3.03;1.70;;;5.10;99.90;;;;;;5006140;28;20030;-85
2023/12/20 10:38:07;;;;;;;2.47;1.97;;;5.10;99.90;;;;;;5005407;28;20108;-85
2023/12/20 10:40:36;;;;;;;2.30;1.90;;;5.10;99.90;;;;;;5006045;28;20025;-84
2023/12/20 10:43:03;;;;;;;2.60;2.00;;;5.10;99.90;;;;;;5005121;28;21411;-84
2023/12/20 10:45:28;;;;;;;3.73;1.83;;;5.10;99.90;;;;;;4987114;28;20029;-85
2023/12/20 10:47:55;;;;;;;2.50;1.87;;;5.10;99.90;;;;;;4987567;28;20346;-84
2023/12/20 10:50:21;;;;;;;1.90;1.63;;;5.10;99.90;;;;;;4985361;28;20030;-85
2023/12/20 10:52:47;;;;;;;2.60;1.80;;;5.10;99.90;;;;;;4986819;28;20042;-88
2023/12/20 10:55:14;;;;;;;3.10;2.23;;;5.10;99.90;;;;;;5007881;28;20034;-85
2023/12/20 10:57:39;;;;;;;2.67;1.87;;;5.10;99.90;;;;;;5010695;28;20018;-84
2023/12/20 11:00:09;;;;;;;2.67;2.00;;;5.20;99.90;;;;;;5011388;28;20030;-89
2023/12/20 11:02:40;;;;;;;2.13;1.93;;;5.20;99.90;;;;;;5008027;28;20034;-89
2023/12/20 11:05:29;;;;;;;2.20;1.80;;;5.20;99.90;;;;;;5010938;28;20101;-88
2023/12/20 11:08:02;;;;;;;2.40;1.90;;;5.20;99.90;;;;;;4991384;28;20026;-85
2023/12/20 11:10:57;;;;;;;2.93;1.77;;;5.20;99.90;;;;;;5008853;28;20265;-84
2023/12/20 11:13:48;;;;;;;2.72;2.20;;;5.20;99.90;;;;;;4995206;28;20057;-85
2023/12/20 11:16:14;;;;;;;2.60;2.13;;;5.20;99.90;;;;;;5007050;28;20065;-84
2023/12/20 11:18:41;;;;;;;3.23;2.43;;;5.30;99.90;;;;;;5006337;28;20054;-87
2023/12/20 11:21:06;;;;;;;2.53;1.90;;;5.30;99.90;;;;;;5005711;28;20080;-85
2023/12/20 11:23:35;;;;;;;2.83;2.03;;;5.40;99.90;;;;;;4991226;28;20038;-85
2023/12/20 11:26:02;;;;;;;2.27;1.87;;;5.30;99.90;;;;;;5005610;28;20022;-86
2023/12/20 11:28:29;;;;;;;2.60;2.00;;;5.40;99.90;;;;;;5005652;28;20030;-83
2023/12/20 11:30:59;;;;;;;2.97;2.00;;;5.40;99.90;;;;;;5005033;28;20062;-84
2023/12/20 11:33:48;;;;;;;2.07;1.80;;;5.50;99.90;;;;;;5004494;28;20108;-83
2023/12/20 11:36:20;;;;;;;3.03;2.20;;;5.50;99.90;;;;;;5006609;28;20025;-89
2023/12/20 11:38:59;;;;;;;2.67;2.20;;;5.60;99.90;;;;;;5005705;28;20042;-84
2023/12/20 11:41:26;;;;;;;3.50;2.10;;;5.70;99.90;;;;;;5004844;28;20042;-82
2023/12/20 11:43:56;;;;;;;3.63;2.03;;;5.80;99.90;;;;;;5003445;28;20022;-84
2023/12/20 11:46:21;;;;;;;3.30;2.30;;;5.70;99.90;;;;;;5004603;28;20043;-83
2023/12/20 11:48:48;;;;;;;2.50;2.00;;;5.70;99.90;;;;;;5004600;28;20030;-83
2023/12/20 11:51:14;;;;;;;2.60;1.93;;;5.70;99.90;;;;;;5005202;28;20022;-86
2023/12/20 11:53:40;;;;;;;2.83;2.10;;;5.70;99.90;;;;;;5005407;28;20500;-84
2023/12/20 11:56:06;;;;;;;2.90;2.17;;;5.80;99.90;;;;;;5003257;28;20144;-84
2023/12/20 11:58:33;;;;;;;6.23;1.90;;;5.80;99.90;;;;;;5001972;28;20038;-79
2023/12/20 12:00:59;;;;;;;2.90;2.17;;;5.80;99.90;;;;;;5005815;28;20029;-84
2023/12/20 12:03:25;;;;;;;2.77;1.87;;;5.80;99.90;;;;;;5004608;28;21036;-84
2023/12/20 12:05:51;;;;;;;3.83;2.23;;;5.90;99.90;;;;;;5003595;28;20050;-84
2023/12/20 12:08:19;;;;;;;2.77;1.87;;;5.90;99.90;;;;;;5001137;28;20026;-85
2023/12/20 12:10:45;;;;;;;2.43;2.00;;;5.90;99.90;;;;;;5000713;28;20099;-86
2023/12/20 12:13:11;;;;;;;2.03;1.50;;;5.90;99.90;;;;;;4999639;28;20548;-88
2023/12/20 12:15:37;;;;;;;2.33;1.73;;;6.00;99.90;;;;;;5001155;28;20030;-85
2023/12/20 12:18:05;;;;;;;2.10;1.70;;;6.00;99.90;;;;;;4995310;28;20064;-86
2023/12/20 12:20:30;;;;;;;3.03;1.87;;;6.00;99.90;;;;;;5000038;28;20476;-89
2023/12/20 12:23:06;;;;;;;2.53;1.80;;;6.00;99.90;;;;;;5002179;28;20042;-84
2023/12/20 12:25:34;;;;;;;2.20;1.80;;;6.00;99.90;;;;;;5002467;28;20041;-88
2023/12/20 12:28:00;;;;;;;2.00;1.50;;;6.10;99.90;;;;;;5000995;28;20052;-84
2023/12/20 12:30:26;;;;;;;2.50;1.80;;;6.10;99.90;;;;;;4982493;28;20569;-85
2023/12/20 12:32:52;;;;;;;3.03;1.90;;;6.10;99.90;;;;;;5001756;28;20046;-84
2023/12/20 12:35:18;;;;;;;2.10;1.57;;;6.00;99.90;;;;;;5002568;28;21423;-85
2023/12/20 12:37:44;;;;;;;2.50;1.70;;;6.00;99.90;;;;;;5002358;28;20137;-87
2023/12/20 12:40:14;;;;;;;3.00;1.80;;;5.90;99.90;;;;;;5002407;28;20101;-88
2023/12/20 12:42:41;;;;;;;4.23;2.20;;;5.90;99.90;;;;;;5003976;28;20041;-86
2023/12/20 12:45:07;;;;;;;3.70;2.17;;;5.80;99.90;;;;;;5005030;28;20052;-88
2023/12/20 12:47:34;;;;;;;3.60;2.20;;;5.70;99.90;;;;;;4998066;28;20218;-85
2023/12/20 12:49:59;;;;;;;3.83;2.00;;;5.60;99.90;;;;;;4999273;28;20037;-84
2023/12/20 12:52:26;;;;;;;3.50;2.07;;;5.50;99.90;;;;;;4999511;28;20091;-84
2023/12/20 12:54:52;;;;;;;3.47;2.00;;;5.40;99.90;;;;;;4998131;28;20037;-84